Scroll for more >

River gauges, storages, and weirs in the Murray–Darling Basin

Type Locationsort descending River Water level Flow Volume Release Water temp Salinity Rainfall
River Gauge Albury (Union Bridge) Murray 1.52 m 23/03/2017 8:45 Not measured Not measured Not measured 20.7°C 23/03/2017 8:45 63.5 μS/cm 23/03/2017 8:45 Not measured Full data
River Gauge Balranald Murrumbidgee 1.19 m 23/03/2017 8:45 765 ML/Day 23/03/2017 8:45 Not measured Not measured 24.4°C 23/03/2017 8:45 147.1 μS/cm 23/03/2017 8:45 Not measured Full data
River Gauge Bandiana Kiewa 0.97 m 23/03/2017 8:45 498 ML/Day 23/03/2017 8:45 Not measured Not measured 21.6°C 23/03/2017 8:45 61.6 μS/cm 23/03/2017 8:45 Not measured Full data
River Gauge Biggara Murray 0.52 m 23/03/2017 8:45 652 ML/Day 23/03/2017 8:45 Not measured Not measured 18.6°C 23/03/2017 8:45 55.6 μS/cm 23/03/2017 8:45 1.2 mm 23/03/2017 9:00 Full data
River Gauge Bringenbrong Bridge Murray 1.29 m 23/03/2017 8:45 2499 ML/Day 23/03/2017 8:45 Not measured Not measured Not measured Not measured Not measured Full data
River Gauge Burtundy Darling 1.31 m 23/03/2017 8:45 1785 ML/Day 23/03/2017 8:45 Not measured Not measured 25.1°C 23/03/2017 8:45 514.8 μS/cm 23/03/2017 8:45 Not measured Full data
River Gauge Colemans Mitta 1.01 m 23/03/2017 9:30 307 ML/Day 23/03/2017 9:30 Not measured Not measured 11.5°C 23/03/2017 8:45 38.2 μS/cm 23/03/2017 8:45 Not measured Full data
River Gauge Colignan Murray 1.74 m 22/03/2017 7:45 5443 ML/Day 22/03/2017 7:45 Not measured Not measured 26.3°C 9/03/2017 11:30 124.0 μS/cm 22/03/2017 7:45 Not measured Full data
River Gauge Corowa Murray 2.72 m 23/03/2017 8:45 12313 ML/Day 23/03/2017 8:45 Not measured Not measured 22.0°C 23/03/2017 8:45 55.6 μS/cm 23/03/2017 8:45 Not measured Full data
Storage Dartmouth Dam Mitta 471.79 m 23/03/2017 9:30 Not measured 2992 GL 23/03/2017 9:30 Not measured Not measured Not measured Not measured Full data
River Gauge Doctors Point Murray 2.5 m 23/03/2017 8:45 9199 ML/Day 23/03/2017 8:45 Not measured Not measured 20.9°C 23/03/2017 8:45 53.5 μS/cm 23/03/2017 8:45 Not measured Full data
River Gauge Echuca Wharf Murray 87.06 m 23/03/2017 7:45 Not measured Not measured Not measured Not measured Not measured Not measured Full data
River Gauge Edward Escape Wakool 0.97 m 23/03/2017 8:45 1337 ML/Day 23/03/2017 8:45 Not measured Not measured 24.1°C 23/03/2017 8:45 64.2 μS/cm 23/03/2017 8:45 Not measured Full data
River Gauge Edward River Offtake Murray 2.48 m 23/03/2017 9:00 1679 ML/Day 23/03/2017 9:00 Not measured Not measured 24.6°C 23/03/2017 8:45 50.4 μS/cm 23/03/2017 8:45 Not measured Full data
Weirs Euston Weir Downstream Murray 43.04 m 23/03/2017 8:45 5151 ML/Day 23/03/2017 8:45 Not measured Not measured 24.8°C 23/03/2017 8:45 113.7 μS/cm 23/03/2017 8:45 Not measured Full data
Weirs Euston Weir Upstream Murray 47.52 m 23/03/2017 7:45 Not measured 36 GL 23/03/2017 7:45 Not measured Not measured Not measured 4.8 mm 22/03/2017 9:00 Full data
River Gauge Flow to South Australia Murray Not measured Not measured Not measured 10389.3 ML/d23/03/2017 7:45 Not measured Not measured Not measured Full data
River Gauge Frenchman Creek Murray 27.37 m 23/03/2017 7:45 Not measured Not measured 695.0 ML/d23/03/2017 7:45 Not measured Not measured Not measured Full data
River Gauge Gulpa Creek Offtake Murray 2.52 m 23/03/2017 7:45 350 ML/Day 23/03/2017 7:45 Not measured Not measured Not measured Not measured Not measured Full data
River Gauge Hinnomunjie Mitta 0.62 m 23/03/2017 8:15 336 ML/Day 23/03/2017 8:15 Not measured Not measured 17.3°C 23/03/2017 8:15 55.1 μS/cm 23/03/2017 8:15 0.0 mm 23/03/2017 9:00 Full data
Storage Hume Dam Murray 186.65 m 23/03/2017 8:45 Not measured 2039 GL 23/03/2017 8:45 8119.0 ML/d23/03/2017 8:00 Not measured Not measured 7.2 mm 23/03/2017 9:00 Full data
River Gauge Jingellic Murray 1.66 m 23/03/2017 8:45 3902 ML/Day 23/03/2017 8:45 Not measured Not measured 19.9°C 23/03/2017 8:45 59.0 μS/cm 23/03/2017 8:45 2.8 mm 23/03/2017 9:00 Full data
River Gauge Kerang Loddon 0.4 m 23/03/2017 8:45 244 ML/Day 23/03/2017 8:45 Not measured Not measured 22.1°C 23/03/2017 8:45 133.8 μS/cm 23/03/2017 8:45 Not measured Full data
River Gauge Lake Albert Murray 0.56 m 23/03/2017 5:45 Not measured 238 GL 23/03/2017 5:45 Not measured Not measured Not measured Not measured Full data
River Gauge Lake Alexandrina Murray 0.59 m 23/03/2017 5:45 Not measured 1506 GL 23/03/2017 5:45 Not measured Not measured Not measured Not measured Full data
Storage Lake Victoria Murray 24.24 m 23/03/2017 7:45 Not measured 369 GL 23/03/2017 7:45 Not measured 23.0°C 23/03/2017 7:45 201.8 μS/cm 23/03/2017 7:45 Not measured Full data
Weirs Lock 1 Downstream Murray 0.75 m 23/03/2017 7:45 Not measured Not measured 7411.2 ML/d23/03/2017 7:45 Not measured Not measured Not measured Full data
Weirs Lock 1 Upstream Murray 3.12 m 23/03/2017 7:45 Not measured Not measured Not measured 23.5°C 23/03/2017 7:45 516.4 μS/cm 23/03/2017 7:45 Not measured Full data
Weirs Lock 2 Downstream Murray 3.5 m 23/03/2017 7:45 Not measured Not measured Not measured Not measured Not measured Not measured Full data
Weirs Lock 2 Upstream Murray 6.1 m 23/03/2017 7:45 Not measured Not measured Not measured 24.3°C 23/03/2017 7:45 511.0 μS/cm 23/03/2017 7:45 Not measured Full data
Weirs Lock 3 Downstream Murray 6.47 m 23/03/2017 7:45 Not measured Not measured Not measured Not measured Not measured Not measured Full data
Weirs Lock 3 Upstream Murray 9.84 m 23/03/2017 7:45 Not measured Not measured Not measured Not measured Not measured Not measured Full data
Weirs Lock 4 Downstream Murray 10.88 m 23/03/2017 7:45 Not measured Not measured Not measured Not measured Not measured Not measured Full data
Weirs Lock 4 Upstream Murray 13.23 m 23/03/2017 7:45 Not measured Not measured Not measured Not measured Not measured Not measured Full data
Weirs Lock 5 Downstream Murray 13.56 m 23/03/2017 7:45 Not measured Not measured Not measured Not measured Not measured Not measured Full data
Weirs Lock 5 Upstream Murray 16.34 m 23/03/2017 7:45 Not measured Not measured Not measured 25.0°C 23/03/2017 7:45 340.2 μS/cm 23/03/2017 7:45 Not measured Full data
Weirs Lock 6 Downstream Murray 16.59 m 23/03/2017 7:45 Not measured Not measured Not measured Not measured Not measured Not measured Full data
Weirs Lock 6 Upstream Murray 19.27 m 23/03/2017 7:45 Not measured Not measured Not measured 24.5°C 23/03/2017 7:45 267.2 μS/cm 23/03/2017 7:45 Not measured Full data
Weirs Lock 7 Downstream Murray 20.95 m 23/03/2017 7:45 Not measured Not measured Not measured Not measured Not measured Not measured Full data
Weirs Lock 7 Upstream Murray 22.06 m 23/03/2017 7:45 Not measured Not measured Not measured 25.4°C 15/03/2017 15:45 317.0 μS/cm 22/03/2017 7:45 Not measured Full data
Weirs Lock 8 Upstream Murray 24.3 m 23/03/2017 7:45 Not measured Not measured Not measured 24.8°C 23/03/2017 7:45 335.9 μS/cm 23/03/2017 7:45 Not measured Full data
Weirs Lock 9 Downstream Murray 24.35 m 23/03/2017 7:45 Not measured Not measured Not measured Not measured Not measured Not measured Full data
Weirs Lock 9 Upstream Murray 27.34 m 23/03/2017 7:45 Not measured Not measured Not measured 25.1°C 23/03/2017 7:45 316.3 μS/cm 23/03/2017 7:45 Not measured Full data
River Gauge McCoy Bridge Goulburn 2.52 m 23/03/2017 8:45 2897 ML/Day 23/03/2017 8:45 Not measured Not measured 22.5°C 23/03/2017 8:45 58.1 μS/cm 23/03/2017 8:45 Not measured Full data
Storage Menindee Lakes Darling Not measured Not measured 950 GL 22/03/2017 7:45 Not measured Not measured Not measured Not measured Full data
Weirs Mildura Weir downstream Murray 33.02 m 23/03/2017 8:30 Not measured Not measured Not measured 25.4°C 23/03/2017 8:30 158.2 μS/cm 23/03/2017 8:30 Not measured Full data
River Gauge Morgan Downstream Murray Not measured Not measured Not measured 5323.4 ML/d23/03/2017 7:45 Not measured Not measured Not measured Full data
River Gauge Mulwala Canal Murray Not measured Not measured Not measured 2923.2 ML/d23/03/2017 7:45 Not measured Not measured Not measured Full data
River Gauge Mundoo Barrage Murray 0.51 m 23/03/2017 7:45 Not measured Not measured Not measured Not measured Not measured Not measured Full data
River Gauge Murray Bridge Murray 0.55 m 23/03/2017 7:45 Not measured Not measured Not measured 22.7°C 23/03/2017 7:45 339.5 μS/cm 23/03/2017 7:45 Not measured Full data
River Gauge Peechelba Ovens 126.43 m 23/03/2017 7:45 486 ML/Day 23/03/2017 7:45 Not measured Not measured 23.3°C 23/03/2017 7:45 78.0 μS/cm 23/03/2017 7:45 Not measured Full data
River Gauge Pinegrove Murray 1.26 m 23/03/2017 8:45 324 ML/Day 23/03/2017 8:45 Not measured Not measured 20.6°C 23/03/2017 8:45 87.4 μS/cm 23/03/2017 8:45 6.6 mm 23/03/2017 9:00 Full data
River Gauge Rochester Campaspe 1.96 m 23/03/2017 8:45 263 ML/Day 23/03/2017 8:45 Not measured Not measured 21.8°C 23/03/2017 8:45 394.5 μS/cm 23/03/2017 8:45 0.2 mm 23/03/2017 9:00 Full data
River Gauge Rufus River Murray 21.53 m 23/03/2017 7:45 Not measured Not measured 5452.5 ML/d23/03/2017 7:45 Not measured 297.8 μS/cm 23/03/2017 5:45 Not measured Full data
Weirs Steven's Weir Downstream Wakool 1.34 m 23/03/2017 8:45 1046 ML/Day 23/03/2017 8:45 Not measured Not measured 25.0°C 23/03/2017 8:45 48.0 μS/cm 23/03/2017 8:45 0.4 mm 21/03/2017 9:00 Full data
Weirs Steven's Weir Upstream Wakool 4.84 m 23/03/2017 9:00 Not measured Not measured Not measured Not measured Not measured Not measured Full data
River Gauge Stoney Crossing Murray 1.51 m 23/03/2017 8:45 632 ML/Day 23/03/2017 8:45 Not measured 619.8 ML/d23/03/2017 7:45 24.8°C 23/03/2017 8:45 405.1 μS/cm 23/03/2017 8:45 Not measured Full data
River Gauge Swan Hill Murray 1.06 m 23/03/2017 8:15 5090 ML/Day 23/03/2017 8:15 Not measured Not measured 24.3°C 23/03/2017 8:15 87.8 μS/cm 23/03/2017 8:15 Not measured Full data
River Gauge Tallandoon Mitta 1.44 m 23/03/2017 8:45 686 ML/Day 23/03/2017 8:45 Not measured Not measured 19.2°C 23/03/2017 8:45 61.9 μS/cm 23/03/2017 8:45 Not measured Full data
River Gauge Tauwitchere Barrage Murray 0.62 m 23/03/2017 7:45 Not measured Not measured Not measured Not measured Not measured Not measured Full data
River Gauge Tocumwal Murray 2.21 m 23/03/2017 8:15 8057 ML/Day 23/03/2017 8:15 Not measured Not measured 24.1°C 23/03/2017 8:15 78.5 μS/cm 23/03/2017 8:15 Not measured Full data
River Gauge Torrumbarry Headworks Murray 85.42 m 23/03/2017 8:45 Not measured Not measured 2816.7 ML/d23/03/2017 8:45 Not measured Not measured Not measured Full data
Weirs Torrumbarry Weir Downstream Murray 2.16 m 23/03/2017 8:45 6084 ML/Day 23/03/2017 8:45 Not measured Not measured 24.7°C 23/03/2017 8:45 62.3 μS/cm 23/03/2017 8:45 Not measured Full data
Weirs Torrumbarry Weir Upstream Murray 86.05 m 23/03/2017 7:45 Not measured 37 GL 23/03/2017 7:45 Not measured 24.7°C 23/03/2017 7:45 63.0 μS/cm 23/03/2017 7:45 2.9 mm 22/03/2017 9:00 Full data
River Gauge Wakool Canal Wakool 0.67 m 23/03/2017 8:45 Not measured Not measured 977.0 ML/d22/03/2017 7:45 Not measured Not measured Not measured Full data
River Gauge Wakool Junction Murray 2.56 m 23/03/2017 8:45 5424 ML/Day 23/03/2017 8:45 Not measured Not measured 24.7°C 23/03/2017 8:45 145.4 μS/cm 23/03/2017 8:45 Not measured Full data
River Gauge Weir 32 Upstream Darling 1.9 m 23/03/2017 7:45 1722 ML/Day 23/03/2017 7:45 Not measured Not measured 26.4°C 23/03/2017 7:45 511.7 μS/cm 23/03/2017 7:45 Not measured Full data
Weirs Wentworth Weir Murray 27.6 m 23/03/2017 8:45 Not measured Not measured 5792.0 ML/d23/03/2017 7:45 Not measured 223.0 μS/cm 23/03/2017 7:45 0.0 mm 22/03/2017 9:00 Full data
River Gauge Wilcania Darling 0.13 m 23/03/2017 8:45 2 ML/Day 23/03/2017 8:45 Not measured Not measured 25.4°C 23/03/2017 8:45 591.8 μS/cm 23/03/2017 8:45 Not measured Full data
River Gauge Yarrawonga Main Channel Murray 123.62 m 23/03/2017 8:45 Not measured Not measured 900.0 ML/d23/03/2017 7:45 Not measured Not measured Not measured Full data
Weirs Yarrawonga Weir Downstream Murray 1.55 m 23/03/2017 8:45 9457 ML/Day 23/03/2017 8:45 Not measured Not measured 24.1°C 23/03/2017 8:45 70.7 μS/cm 23/03/2017 8:45 Not measured Full data
Weirs Yarrawonga Weir Upstream Murray 124.91 m 23/03/2017 8:45 Not measured Not measured Not measured Not measured Not measured 0.2 mm 23/03/2017 9:00 Full data